Time;durP1;ratioP1;P1;durP2;ratioP2;P2;SDS_P1;SDS_P2;PMS_P1;PMS_P2;Temp;Humidity;BMP_temperature;BMP_pressure;BME280_temperature;BME280_humidity;BME280_pressure;Samples;Min_cycle;Max_cycle;Signal;HPM_P1;HPM_P2
2021/05/13 02:47:54;;;;;;;9.65;8.95;;;8.90;99.90;;;;;;5202130;22;94301;-86
2021/05/13 02:50:20;;;;;;;9.65;8.77;;;8.90;99.90;;;;;;4964739;28;92180;-87
2021/05/13 02:52:45;;;;;;;14.02;9.60;;;8.90;99.90;;;;;;4964996;28;92004;-87
2021/05/13 02:55:12;;;;;;;11.32;10.23;;;8.90;99.90;;;;;;4958445;28;91977;-85
2021/05/13 02:57:39;;;;;;;9.98;9.07;;;8.90;99.90;;;;;;4964030;28;91115;-85
2021/05/13 03:00:29;;;;;;;10.20;9.27;;;8.90;99.90;;;;;;4963852;28;92086;-88
2021/05/13 03:02:55;;;;;;;10.07;9.17;;;8.90;99.90;;;;;;4964870;28;93053;-85
2021/05/13 03:05:25;;;;;;;10.15;9.25;;;8.90;99.90;;;;;;4963957;28;92796;-84
2021/05/13 03:07:53;;;;;;;10.88;9.82;;;9.00;99.90;;;;;;4946687;28;92203;-85
2021/05/13 03:10:31;;;;;;;10.95;9.82;;;9.00;99.90;;;;;;4963510;28;92316;-85
2021/05/13 03:12:57;;;;;;;10.50;9.60;;;9.00;99.90;;;;;;4965049;28;93364;-85
2021/05/13 03:15:23;;;;;;;10.75;9.75;;;9.00;99.90;;;;;;4964697;28;91522;-85
2021/05/13 03:17:50;;;;;;;10.73;9.82;;;9.00;99.90;;;;;;4965767;28;91886;-86
2021/05/13 03:20:20;;;;;;;10.30;9.52;;;9.00;99.90;;;;;;4952114;28;92050;-87
2021/05/13 03:22:48;;;;;;;9.57;8.75;;;;;;;;;;4956372;28;92086;-86
2021/05/13 03:25:15;;;;;;;9.60;7.97;;;9.10;99.90;;;;;;4966044;28;92036;-86
2021/05/13 03:27:54;;;;;;;8.70;8.00;;;9.10;99.90;;;;;;4963911;28;91904;-86
2021/05/13 03:30:24;;;;;;;9.57;8.68;;;9.10;99.90;;;;;;4962684;28;94050;-86
2021/05/13 03:32:50;;;;;;;9.82;8.88;;;9.10;99.90;;;;;;4948165;28;95916;-86
2021/05/13 03:35:16;;;;;;;9.85;9.00;;;9.10;99.90;;;;;;4968812;28;91786;-85
2021/05/13 03:37:41;;;;;;;10.55;9.48;;;9.00;99.90;;;;;;4969040;28;92001;-85
2021/05/13 03:40:08;;;;;;;11.57;10.57;;;8.90;99.90;;;;;;4953115;28;92234;-86
2021/05/13 03:42:34;;;;;;;10.00;9.20;;;8.90;99.90;;;;;;4964179;28;92175;-86
2021/05/13 03:44:59;;;;;;;10.80;10.00;;;8.80;99.90;;;;;;4965607;28;92013;-85
2021/05/13 03:47:25;;;;;;;11.23;10.40;;;8.80;99.90;;;;;;4953558;28;91205;-86
2021/05/13 03:49:51;;;;;;;11.52;10.57;;;8.70;99.90;;;;;;4945310;28;92532;-86
2021/05/13 03:52:17;;;;;;;11.63;10.60;;;8.70;99.90;;;;;;4932251;28;92413;-86
2021/05/13 03:54:42;;;;;;;14.10;10.18;;;8.70;99.90;;;;;;4949376;28;93182;-86
2021/05/13 03:57:09;;;;;;;10.05;9.27;;;8.70;99.90;;;;;;4944066;28;92167;-85
2021/05/13 03:59:41;;;;;;;10.23;9.35;;;8.70;99.90;;;;;;4944510;28;92260;-85
2021/05/13 04:04:51;;;;;;;9.77;8.98;;;8.70;99.90;;;;;;4932074;28;92042;-87
2021/05/13 04:07:18;;;;;;;11.00;10.02;;;8.70;99.90;;;;;;4945632;28;92021;-86
2021/05/13 04:09:44;;;;;;;11.43;10.52;;;8.70;99.90;;;;;;4953429;28;92048;-86
2021/05/13 04:12:09;;;;;;;10.70;9.80;;;8.70;99.90;;;;;;4932329;28;94330;-86
2021/05/13 04:14:35;;;;;;;12.25;8.68;;;8.70;99.90;;;;;;4945036;28;91909;-86
2021/05/13 04:17:02;;;;;;;10.50;9.60;;;8.70;99.90;;;;;;4952648;28;92151;-86
2021/05/13 04:19:27;;;;;;;10.45;9.55;;;8.80;99.90;;;;;;4933327;28;93485;-83
2021/05/13 04:21:53;;;;;;;10.75;9.75;;;8.80;99.90;;;;;;4944657;28;93006;-87
2021/05/13 04:24:19;;;;;;;10.68;9.73;;;8.80;99.90;;;;;;4949910;28;92058;-85
2021/05/13 04:26:45;;;;;;;10.32;9.43;;;8.90;99.90;;;;;;4930200;28;92736;-84
2021/05/13 04:29:11;;;;;;;9.57;8.68;;;8.90;99.90;;;;;;4947224;28;93147;-87
2021/05/13 04:31:37;;;;;;;11.52;10.20;;;9.00;99.90;;;;;;4925890;28;95505;-85
2021/05/13 04:34:04;;;;;;;13.75;12.65;;;8.90;99.90;;;;;;4927919;28;92138;-85
2021/05/13 04:36:30;;;;;;;11.60;10.50;;;9.10;99.90;;;;;;4938503;28;91254;-84
2021/05/13 04:38:56;;;;;;;11.77;10.73;;;9.10;99.90;;;;;;4945997;28;93127;-84
2021/05/13 04:41:22;;;;;;;11.43;10.43;;;9.20;99.90;;;;;;4939800;28;92379;-87
2021/05/13 04:43:48;;;;;;;11.23;10.23;;;9.20;99.90;;;;;;4938648;28;93078;-85
2021/05/13 04:46:15;;;;;;;11.77;10.80;;;9.40;99.90;;;;;;4938233;28;92747;-85
2021/05/13 04:51:20;;;;;;;11.90;10.02;;;9.40;99.90;;;;;;4943693;28;92966;-86
2021/05/13 04:53:50;;;;;;;10.98;10.00;;;9.40;99.90;;;;;;4955622;28;92112;-85
2021/05/13 04:56:16;;;;;;;11.35;10.32;;;9.50;99.90;;;;;;4959947;28;91289;-84
2021/05/13 04:58:43;;;;;;;10.60;9.60;;;9.40;99.90;;;;;;4939085;28;92720;-85
2021/05/13 05:01:09;;;;;;;9.95;9.05;;;9.40;99.90;;;;;;4931940;28;92388;-84
2021/05/13 05:03:35;;;;;;;10.20;9.32;;;9.40;99.90;;;;;;4956769;28;92463;-85
2021/05/13 05:06:01;;;;;;;11.40;10.57;;;9.40;99.90;;;;;;4977087;28;91151;-84
2021/05/13 05:08:26;;;;;;;12.50;11.52;;;9.40;99.90;;;;;;4965443;28;93709;-86
2021/05/13 05:10:52;;;;;;;12.77;11.73;;;9.40;99.90;;;;;;4965710;28;92872;-85
2021/05/13 05:13:18;;;;;;;11.77;10.77;;;9.40;99.90;;;;;;4968302;28;91334;-87
2021/05/13 05:15:44;;;;;;;10.57;9.57;;;9.30;99.90;;;;;;4961879;28;91412;-88
2021/05/13 05:18:16;;;;;;;12.32;11.20;;;9.40;99.90;;;;;;4947125;28;92741;-88
2021/05/13 05:20:42;;;;;;;11.90;10.80;;;9.40;99.90;;;;;;4937827;28;91932;-89
2021/05/13 05:23:08;;;;;;;12.98;11.60;;;9.50;99.90;;;;;;4940965;28;91984;-87
2021/05/13 05:25:33;;;;;;;10.23;9.15;;;9.60;99.90;;;;;;4945026;28;91116;-87
2021/05/13 05:27:59;;;;;;;11.38;10.27;;;9.50;99.90;;;;;;4931154;28;92882;-86
2021/05/13 05:30:25;;;;;;;11.13;10.18;;;9.60;99.90;;;;;;4935109;28;93609;-87
2021/05/13 05:32:51;;;;;;;12.13;10.93;;;9.60;99.90;;;;;;4944057;28;92881;-87
2021/05/13 05:35:18;;;;;;;11.13;10.13;;;9.70;99.90;;;;;;4927456;28;92193;-85
2021/05/13 05:37:44;;;;;;;10.13;9.23;;;9.70;99.90;;;;;;4938934;28;91858;-86
2021/05/13 05:40:12;;;;;;;10.82;9.90;;;9.70;99.90;;;;;;4937659;28;92939;-87
2021/05/13 05:42:38;;;;;;;11.82;10.82;;;9.80;99.90;;;;;;4935396;28;91939;-86
2021/05/13 05:45:05;;;;;;;11.73;10.55;;;9.80;99.90;;;;;;4934176;28;92003;-85
2021/05/13 05:47:30;;;;;;;11.55;10.55;;;9.90;99.90;;;;;;4937566;28;92742;-88
2021/05/13 05:49:56;;;;;;;11.50;10.40;;;10.00;99.90;;;;;;4945903;28;94299;-86
2021/05/13 05:52:22;;;;;;;10.90;10.05;;;10.00;99.90;;;;;;4947316;28;92050;-85
2021/05/13 05:54:47;;;;;;;11.52;10.63;;;10.00;99.90;;;;;;4942968;28;92369;-85
2021/05/13 05:57:13;;;;;;;12.52;11.30;;;10.00;99.90;;;;;;4944922;28;95539;-86
2021/05/13 05:59:39;;;;;;;12.00;10.98;;;10.10;99.90;;;;;;4943682;28;94105;-87
2021/05/13 06:02:05;;;;;;;10.77;9.75;;;10.10;99.90;;;;;;4945538;28;91648;-86
2021/05/13 06:04:31;;;;;;;14.43;11.32;;;10.10;99.90;;;;;;4928071;28;91993;-87
2021/05/13 06:06:56;;;;;;;13.65;11.95;;;10.30;99.90;;;;;;4944334;28;95546;-86
2021/05/13 06:09:22;;;;;;;16.33;14.65;;;10.30;99.90;;;;;;4944956;28;92074;-88
2021/05/13 06:11:48;;;;;;;15.23;13.82;;;10.40;99.90;;;;;;4943252;28;92226;-85
2021/05/13 06:14:13;;;;;;;14.48;13.25;;;10.50;99.90;;;;;;4947087;28;90827;-86
2021/05/13 06:16:39;;;;;;;11.60;10.60;;;10.60;99.90;;;;;;4926623;28;93226;-86
2021/05/13 06:19:05;;;;;;;12.00;10.90;;;10.70;99.90;;;;;;4944011;28;92442;-86
2021/05/13 06:21:33;;;;;;;12.57;11.43;;;10.80;99.90;;;;;;4943461;28;93419;-84
2021/05/13 06:24:00;;;;;;;11.77;10.70;;;10.90;99.90;;;;;;4950356;28;92287;-87
2021/05/13 06:26:27;;;;;;;11.40;10.38;;;11.10;99.90;;;;;;4945941;28;92041;-89
2021/05/13 06:28:52;;;;;;;9.13;8.23;;;11.10;99.90;;;;;;4946284;28;92715;-87
2021/05/13 06:31:18;;;;;;;11.48;10.63;;;11.20;99.90;;;;;;4952976;28;92066;-86
2021/05/13 06:33:44;;;;;;;11.52;10.45;;;11.30;99.90;;;;;;4945112;28;92246;-87
2021/05/13 06:36:10;;;;;;;14.30;13.40;;;11.50;99.90;;;;;;4943883;28;93176;-86
2021/05/13 06:38:36;;;;;;;13.45;12.48;;;;;;;;;;4944914;28;92466;-87
2021/05/13 06:41:02;;;;;;;11.07;10.18;;;11.90;99.90;;;;;;4947271;28;92150;-88
2021/05/13 06:43:28;;;;;;;11.20;10.13;;;12.00;99.90;;;;;;4928542;28;91979;-88
2021/05/13 06:45:54;;;;;;;16.83;15.73;;;;;;;;;;4942650;28;94019;-86
2021/05/13 06:48:19;;;;;;;23.98;22.60;;;12.30;99.90;;;;;;4948261;28;93038;-87
2021/05/13 06:50:45;;;;;;;21.42;20.02;;;12.40;99.90;;;;;;4947627;28;91989;-87
2021/05/13 06:53:11;;;;;;;22.02;20.60;;;12.60;99.90;;;;;;4946946;28;92129;-86
2021/05/13 06:55:37;;;;;;;14.38;13.38;;;12.90;99.90;;;;;;4948131;28;92813;-86
2021/05/13 06:58:03;;;;;;;14.23;13.05;;;13.10;99.90;;;;;;4930181;28;94029;-85
2021/05/13 07:00:29;;;;;;;10.70;10.00;;;13.40;99.90;;;;;;4951151;28;91610;-86
2021/05/13 07:02:55;;;;;;;10.98;9.90;;;13.40;99.90;;;;;;4946008;28;91409;-85
2021/05/13 07:05:20;;;;;;;36.70;35.00;;;13.50;99.90;;;;;;4942800;28;92467;-85
2021/05/13 07:07:46;;;;;;;29.23;27.70;;;13.10;99.90;;;;;;4943552;28;92508;-85
2021/05/13 07:10:12;;;;;;;31.88;30.27;;;12.90;99.90;;;;;;4944092;28;92983;-85
2021/05/13 07:12:38;;;;;;;35.10;33.40;;;13.00;99.90;;;;;;4923600;28;91987;-85
2021/05/13 07:15:05;;;;;;;38.40;36.58;;;13.00;99.90;;;;;;4944809;28;92737;-84
2021/05/13 07:17:30;;;;;;;16.05;14.75;;;13.20;99.90;;;;;;4945062;28;92452;-83
2021/05/13 07:19:56;;;;;;;13.00;12.20;;;13.20;99.90;;;;;;4946427;28;91632;-84
2021/05/13 07:22:22;;;;;;;16.50;15.45;;;13.40;99.90;;;;;;4944690;28;91684;-85
2021/05/13 07:24:48;;;;;;;15.52;14.43;;;;;;;;;;4944298;28;96742;-84
2021/05/13 07:27:14;;;;;;;18.63;17.65;;;14.10;99.90;;;;;;4944521;28;93885;-85
2021/05/13 07:29:40;;;;;;;12.35;11.55;;;14.60;99.90;;;;;;4943820;28;91978;-85
2021/05/13 07:32:06;;;;;;;11.48;10.68;;;15.00;99.90;;;;;;4940538;28;92209;-85
2021/05/13 07:34:33;;;;;;;14.95;14.02;;;15.30;99.90;;;;;;4938600;28;95092;-85
2021/05/13 07:36:59;;;;;;;11.75;10.82;;;15.60;99.90;;;;;;4929682;28;95290;-85
2021/05/13 07:39:25;;;;;;;12.00;11.05;;;16.00;99.90;;;;;;4943067;28;92198;-84
2021/05/13 07:41:50;;;;;;;22.98;21.77;;;16.30;99.90;;;;;;4935782;28;92224;-85
2021/05/13 07:44:16;;;;;;;14.95;14.02;;;16.60;99.90;;;;;;4942057;28;95892;-85
2021/05/13 07:46:42;;;;;;;16.70;15.75;;;16.80;99.90;;;;;;4935278;28;94181;-85
2021/05/13 07:49:09;;;;;;;16.48;15.57;;;16.90;99.70;;;;;;4922657;28;91979;-83
2021/05/13 07:51:35;;;;;;;14.90;13.82;;;17.00;98.30;;;;;;4922638;28;91045;-87
2021/05/13 07:54:02;;;;;;;19.05;17.95;;;16.90;98.10;;;;;;4922154;28;92786;-85
2021/05/13 07:56:27;;;;;;;22.35;21.25;;;17.00;98.20;;;;;;4921265;28;92317;-85
2021/05/13 07:58:53;;;;;;;22.30;21.17;;;17.10;97.20;;;;;;4922755;28;92744;-84
2021/05/13 08:01:19;;;;;;;24.50;23.20;;;17.20;97.50;;;;;;4923010;28;91582;-85
2021/05/13 08:03:47;;;;;;;25.23;23.92;;;17.50;97.70;;;;;;4938482;28;95490;-83
2021/05/13 08:06:12;;;;;;;15.07;14.20;;;17.60;97.10;;;;;;4914999;28;92030;-84
2021/05/13 08:08:39;;;;;;;22.92;21.58;;;17.70;95.80;;;;;;4923551;28;92056;-83
2021/05/13 08:11:05;;;;;;;24.63;23.42;;;17.60;94.90;;;;;;4924463;28;92045;-85
2021/05/13 08:13:31;;;;;;;24.00;22.75;;;17.70;95.10;;;;;;4923908;28;92689;-85
2021/05/13 08:15:57;;;;;;;19.35;18.15;;;17.90;95.70;;;;;;4923127;28;92094;-86
2021/05/13 08:18:23;;;;;;;20.27;19.17;;;18.10;94.00;;;;;;4932024;28;91973;-86
2021/05/13 08:20:49;;;;;;;21.60;20.30;;;18.50;94.40;;;;;;4926518;28;91674;-87
2021/05/13 08:23:16;;;;;;;34.42;32.63;;;19.00;93.60;;;;;;4926976;28;93023;-86
2021/05/13 08:25:41;;;;;;;32.75;31.25;;;19.40;92.30;;;;;;4943945;28;93875;-86
2021/05/13 08:28:07;;;;;;;29.40;27.83;;;19.80;91.20;;;;;;4929411;28;91988;-87
2021/05/13 08:30:33;;;;;;;19.55;18.52;;;20.20;90.40;;;;;;4930390;28;92140;-87
2021/05/13 08:33:00;;;;;;;15.88;15.05;;;21.50;90.90;;;;;;4929612;28;92265;-88
2021/05/13 08:35:25;;;;;;;32.47;30.92;;;21.10;85.30;;;;;;4929899;28;92772;-87
2021/05/13 08:37:51;;;;;;;36.58;34.92;;;21.90;84.30;;;;;;4928770;28;92134;-87
2021/05/13 08:40:21;;;;;;;28.38;26.98;;;22.90;82.00;;;;;;4928608;28;91276;-87
2021/05/13 08:42:47;;;;;;;20.08;18.98;;;23.50;72.80;;;;;;4931682;28;92357;-88
2021/05/13 08:45:13;;;;;;;19.83;18.63;;;23.80;73.80;;;;;;4924011;28;96618;-86
2021/05/13 08:47:50;;;;;;;41.38;39.25;;;24.60;70.10;;;;;;4935642;28;92932;-86
2021/05/13 08:50:17;;;;;;;23.20;21.92;;;26.30;64.40;;;;;;4944471;28;91943;-85
2021/05/13 08:52:43;;;;;;;119.93;115.15;;;26.30;64.80;;;;;;4939072;28;91933;-86
2021/05/13 08:55:09;;;;;;;150.07;144.13;;;28.30;63.20;;;;;;4941824;28;91837;-86
2021/05/13 08:57:35;;;;;;;106.97;102.63;;;;;;;;;;4940769;28;92012;-87
2021/05/13 09:00:04;;;;;;;104.60;100.47;;;30.70;51.20;;;;;;4940691;28;91915;-86
2021/05/13 09:02:32;;;;;;;68.88;65.97;;;32.80;40.00;;;;;;4939847;28;95146;-87
2021/05/13 09:05:00;;;;;;;35.30;33.78;;;33.20;42.30;;;;;;4943963;28;91883;-87
2021/05/13 09:07:29;;;;;;;42.20;40.30;;;34.10;39.30;;;;;;4939363;28;92217;-86
2021/05/13 09:10:03;;;;;;;37.38;35.83;;;33.50;38.90;;;;;;4941839;28;92005;-86
2021/05/13 09:12:36;;;;;;;38.15;36.50;;;32.10;37.10;;;;;;4923583;28;94869;-85
2021/05/13 09:15:18;;;;;;;53.80;51.58;;;30.20;39.70;;;;;;4938244;28;93523;-85
2021/05/13 09:17:47;;;;;;;41.13;39.28;;;28.50;41.30;;;;;;4942371;28;91935;-85
2021/05/13 09:20:23;;;;;;;41.13;39.35;;;26.80;44.00;;;;;;4943019;28;92027;-84
2021/05/13 09:22:49;;;;;;;35.80;34.15;;;;;;;;;;4941630;28;93477;-84
2021/05/13 09:25:15;;;;;;;94.63;90.70;;;24.10;47.40;;;;;;4944128;28;92081;-85
2021/05/13 09:27:45;;;;;;;46.67;44.65;;;24.10;49.50;;;;;;4944674;28;91872;-85
2021/05/13 09:30:24;;;;;;;36.30;34.70;;;27.20;46.60;;;;;;4948518;28;91278;-86
2021/05/13 09:32:52;;;;;;;93.93;90.25;;;27.50;45.40;;;;;;4950174;28;93160;-86
2021/05/13 09:35:21;;;;;;;39.92;38.05;;;29.80;44.00;;;;;;4941590;28;93019;-86
2021/05/13 09:37:54;;;;;;;83.63;80.13;;;29.70;38.70;;;;;;4941076;28;93507;-86
2021/05/13 09:40:40;;;;;;;57.28;54.85;;;29.70;39.10;;;;;;4924031;28;92159;-85
2021/05/13 09:43:21;;;;;;;101.43;97.40;;;27.50;41.90;;;;;;4942197;28;92718;-85
2021/05/13 09:45:56;;;;;;;59.10;56.50;;;27.30;41.60;;;;;;4941599;28;92211;-85
2021/05/13 09:48:45;;;;;;;54.97;52.72;;;26.30;42.70;;;;;;4941456;28;92015;-84
2021/05/13 09:51:17;;;;;;;60.33;57.88;;;25.00;45.00;;;;;;4943107;28;92419;-84
2021/05/13 09:53:43;;;;;;;61.80;59.17;;;25.10;45.50;;;;;;4942701;28;92729;-86
2021/05/13 09:56:27;;;;;;;65.05;62.38;;;25.60;44.20;;;;;;4943669;28;92855;-87
2021/05/13 09:58:54;;;;;;;92.97;89.35;;;26.60;42.80;;;;;;4940765;28;91943;-86
2021/05/13 10:01:20;;;;;;;73.93;70.97;;;27.80;42.80;;;;;;4924809;28;92035;-86
2021/05/13 10:03:48;;;;;;;59.67;57.00;;;28.60;41.80;;;;;;4940071;28;93563;-86
2021/05/13 10:06:14;;;;;;;65.38;62.78;;;28.90;41.10;;;;;;4941023;28;94029;-87
2021/05/13 10:08:42;;;;;;;103.68;99.57;;;29.10;41.40;;;;;;4941132;28;91816;-87
2021/05/13 10:11:09;;;;;;;68.20;65.28;;;29.00;40.60;;;;;;4940483;28;92069;-86
2021/05/13 10:13:36;;;;;;;82.57;79.18;;;27.60;40.90;;;;;;4941596;28;92451;-86
2021/05/13 10:16:03;;;;;;;100.03;96.07;;;26.90;41.20;;;;;;4941401;28;92321;-86
2021/05/13 10:18:40;;;;;;;102.18;97.88;;;25.90;40.80;;;;;;4942842;28;91994;-86
2021/05/13 10:21:14;;;;;;;43.80;41.90;;;25.40;43.00;;;;;;4945726;28;91162;-86
2021/05/13 10:23:43;;;;;;;53.53;51.33;;;25.40;43.50;;;;;;4935532;28;95914;-85
2021/05/13 10:26:29;;;;;;;77.60;74.35;;;24.80;44.80;;;;;;4944882;28;92901;-86
2021/05/13 10:28:55;;;;;;;48.15;45.92;;;24.30;45.90;;;;;;4931737;28;92777;-85
2021/05/13 10:31:38;;;;;;;23.00;21.65;;;24.80;45.00;;;;;;4944589;28;92043;-85
2021/05/13 10:34:04;;;;;;;54.42;52.22;;;24.80;44.80;;;;;;4943656;28;91951;-85
2021/05/13 10:36:30;;;;;;;29.35;28.05;;;24.70;46.00;;;;;;4940608;28;92015;-86
2021/05/13 10:39:11;;;;;;;17.00;16.00;;;24.10;47.00;;;;;;4942609;28;91944;-85
2021/05/13 10:41:43;;;;;;;26.10;24.88;;;24.00;47.70;;;;;;4936863;28;91876;-87
2021/05/13 10:44:15;;;;;;;16.98;16.13;;;23.30;48.30;;;;;;4943482;28;92758;-85
2021/05/13 10:46:53;;;;;;;25.80;24.50;;;22.80;49.50;;;;;;4943836;28;92876;-85
2021/05/13 10:49:26;;;;;;;29.83;28.42;;;22.50;50.90;;;;;;4944526;28;91994;-83
2021/05/13 10:51:57;;;;;;;26.80;25.50;;;22.40;51.10;;;;;;4946351;28;91911;-84
2021/05/13 10:54:28;;;;;;;17.65;16.88;;;22.10;48.90;;;;;;4944120;28;93231;-84
2021/05/13 10:57:17;;;;;;;19.65;18.75;;;21.90;49.10;;;;;;4943744;28;95485;-85
2021/05/13 11:00:08;;;;;;;14.40;13.80;;;21.70;50.50;;;;;;4939227;28;91742;-85
2021/05/13 11:02:44;;;;;;;13.25;12.55;;;22.00;51.60;;;;;;4945785;28;91935;-85
2021/05/13 11:05:38;;;;;;;16.25;15.48;;;22.90;50.30;;;;;;4951782;28;92608;-85
2021/05/13 11:08:07;;;;;;;11.35;10.85;;;26.50;44.20;;;;;;4941578;28;92071;-85
2021/05/13 11:10:48;;;;;;;38.63;36.95;;;26.50;44.70;;;;;;4941657;28;91955;-85
2021/05/13 11:13:15;;;;;;;54.60;52.50;;;26.40;44.90;;;;;;4942482;28;91372;-84
2021/05/13 11:15:59;;;;;;;22.45;21.55;;;;;;;;;;4941311;28;92859;-86
2021/05/13 11:18:26;;;;;;;14.65;13.98;;;24.10;47.70;;;;;;4941761;28;92481;-85
2021/05/13 11:20:55;;;;;;;16.77;16.05;;;22.10;52.30;;;;;;4941141;28;93060;-84
2021/05/13 11:23:31;;;;;;;9.35;8.95;;;20.00;54.60;;;;;;4944301;28;91947;-85
2021/05/13 11:25:59;;;;;;;8.38;7.97;;;19.70;56.20;;;;;;4942318;28;92339;-84
2021/05/13 11:28:31;;;;;;;10.30;9.90;;;19.10;57.30;;;;;;4940905;28;91876;-84
2021/05/13 11:31:06;;;;;;;11.35;10.88;;;19.30;57.80;;;;;;4942984;28;91870;-85
2021/05/13 11:33:39;;;;;;;9.05;8.55;;;19.20;60.40;;;;;;4941829;28;91986;-85
2021/05/13 11:36:06;;;;;;;20.95;20.05;;;18.80;59.90;;;;;;4935329;28;93141;-83
2021/05/13 11:38:32;;;;;;;14.07;13.27;;;;;;;;;;4946206;28;93990;-85
2021/05/13 11:40:58;;;;;;;9.15;8.75;;;17.90;65.70;;;;;;4937424;28;92249;-84
2021/05/13 11:43:31;;;;;;;15.82;15.13;;;17.70;65.90;;;;;;4943153;28;91813;-84
2021/05/13 11:46:05;;;;;;;7.80;7.47;;;17.10;67.00;;;;;;4942076;28;93063;-83
2021/05/13 11:48:33;;;;;;;8.07;7.68;;;18.30;66.60;;;;;;4938064;28;94259;-83
2021/05/13 11:51:10;;;;;;;6.97;6.57;;;17.80;66.10;;;;;;4923074;28;91498;-83
2021/05/13 11:53:42;;;;;;;7.28;6.93;;;18.00;63.80;;;;;;4923537;28;92024;-85
2021/05/13 11:56:08;;;;;;;5.38;5.03;;;18.20;64.30;;;;;;4918400;28;93296;-85
2021/05/13 11:58:34;;;;;;;7.18;6.78;;;18.40;62.70;;;;;;4915749;28;92525;-82
2021/05/13 12:01:21;;;;;;;7.68;7.32;;;18.90;60.70;;;;;;4924022;28;92089;-84
2021/05/13 12:03:49;;;;;;;12.75;12.20;;;19.30;60.20;;;;;;4918512;28;91247;-85
2021/05/13 12:06:16;;;;;;;20.90;20.08;;;20.20;58.80;;;;;;4922221;28;92613;-84
2021/05/13 12:08:41;;;;;;;9.52;9.13;;;20.10;57.60;;;;;;4922925;28;91724;-85
2021/05/13 12:11:19;;;;;;;16.00;15.23;;;20.80;53.80;;;;;;4923570;28;92929;-84
2021/05/13 12:13:46;;;;;;;17.38;16.67;;;21.10;53.30;;;;;;4921158;28;92110;-86
2021/05/13 12:16:13;;;;;;;30.88;29.60;;;21.10;53.80;;;;;;4921452;28;92013;-86
2021/05/13 12:18:42;;;;;;;7.38;7.00;;;22.60;51.40;;;;;;4922743;28;93028;-86
2021/05/13 12:21:09;;;;;;;13.68;13.13;;;23.20;50.90;;;;;;4925740;28;91991;-85
2021/05/13 12:23:39;;;;;;;13.45;12.85;;;23.30;50.20;;;;;;4926164;28;92100;-85
2021/05/13 12:26:05;;;;;;;14.07;13.57;;;;;;;;;;4922689;28;93369;-86
2021/05/13 12:28:31;;;;;;;11.73;11.32;;;22.90;49.20;;;;;;4923477;28;91940;-84
2021/05/13 12:30:57;;;;;;;8.75;8.35;;;;;;;;;;4922293;28;92052;-84
2021/05/13 12:33:34;;;;;;;8.18;7.78;;;21.60;49.40;;;;;;4923425;28;92413;-85
2021/05/13 12:36:00;;;;;;;26.65;25.65;;;20.40;52.40;;;;;;4921670;28;92992;-83
2021/05/13 12:38:26;;;;;;;10.65;10.15;;;;;;;;;;4916459;28;92941;-85
2021/05/13 12:41:10;;;;;;;11.07;10.48;;;18.70;55.00;;;;;;4914203;28;92102;-85
2021/05/13 12:43:37;;;;;;;7.35;6.95;;;17.90;57.60;;;;;;4908060;28;92507;-85
2021/05/13 12:46:37;;;;;;;19.27;18.48;;;18.00;57.90;;;;;;4911050;28;92304;-85
2021/05/13 12:49:03;;;;;;;14.25;13.45;;;;;;;;;;4918596;28;91658;-85
2021/05/13 12:51:29;;;;;;;15.23;14.63;;;18.10;60.40;;;;;;4922648;28;91602;-85
2021/05/13 12:53:58;;;;;;;10.45;10.05;;;16.90;61.00;;;;;;4922395;28;91279;-84
2021/05/13 12:56:32;;;;;;;10.52;10.13;;;16.90;61.40;;;;;;4920595;28;91955;-84
2021/05/13 12:59:03;;;;;;;22.60;21.80;;;16.00;64.30;;;;;;4920927;28;92966;-84
2021/05/13 13:01:29;;;;;;;8.93;8.63;;;15.70;68.50;;;;;;4913883;28;93033;-85
2021/05/13 13:03:56;;;;;;;8.45;8.15;;;15.90;72.50;;;;;;4922999;28;92019;-84
2021/05/13 13:06:22;;;;;;;5.28;5.07;;;15.30;67.10;;;;;;4924499;28;92739;-84
2021/05/13 13:08:51;;;;;;;6.57;6.38;;;15.60;74.20;;;;;;4923381;28;92009;-85
2021/05/13 13:11:38;;;;;;;10.10;9.70;;;15.10;75.80;;;;;;4922326;28;91979;-84
2021/05/13 13:14:08;;;;;;;8.75;8.45;;;14.10;77.20;;;;;;4923811;28;92175;-84
2021/05/13 13:16:36;;;;;;;11.63;11.23;;;14.60;79.10;;;;;;4921728;28;92631;-84
2021/05/13 13:19:09;;;;;;;7.93;7.63;;;14.10;80.00;;;;;;4921863;28;92122;-84
2021/05/13 13:21:40;;;;;;;8.05;7.75;;;14.20;74.50;;;;;;4922919;28;91960;-83
2021/05/13 13:24:19;;;;;;;8.77;8.48;;;13.90;73.40;;;;;;4922260;28;91958;-84
2021/05/13 13:26:56;;;;;;;5.72;5.53;;;13.50;82.10;;;;;;4921824;28;93044;-84
2021/05/13 13:29:21;;;;;;;9.07;8.77;;;14.10;81.30;;;;;;4937154;28;94187;-84
2021/05/13 13:31:47;;;;;;;7.85;7.55;;;;;;;;;;4927755;28;92059;-86
2021/05/13 13:34:14;;;;;;;6.65;6.40;;;13.50;82.70;;;;;;4932384;28;91519;-84
2021/05/13 13:36:41;;;;;;;6.97;6.78;;;13.50;77.00;;;;;;4915087;28;93712;-84
2021/05/13 13:39:08;;;;;;;9.98;9.63;;;13.10;83.90;;;;;;4922226;28;92361;-84
2021/05/13 13:41:34;;;;;;;9.13;8.82;;;13.50;87.20;;;;;;4922414;28;91874;-84
2021/05/13 13:44:00;;;;;;;8.48;8.18;;;12.60;86.80;;;;;;4923503;28;91673;-84
2021/05/13 13:46:26;;;;;;;8.30;8.00;;;12.70;89.00;;;;;;4924125;28;92680;-83
2021/05/13 13:48:52;;;;;;;6.35;6.15;;;;;;;;;;4941314;28;91545;-86
2021/05/13 13:51:18;;;;;;;6.35;6.10;;;12.70;90.00;;;;;;4941666;28;92812;-84
2021/05/13 13:53:44;;;;;;;8.65;8.35;;;;;;;;;;4940594;28;92086;-86
2021/05/13 13:56:09;;;;;;;9.85;9.45;;;13.20;95.80;;;;;;4942438;28;92042;-84
2021/05/13 13:58:35;;;;;;;8.43;8.13;;;12.20;97.70;;;;;;4940228;28;93017;-84
2021/05/13 14:01:04;;;;;;;8.52;8.23;;;12.70;96.40;;;;;;4943141;28;91924;-85
2021/05/13 14:03:31;;;;;;;8.60;8.27;;;12.60;99.40;;;;;;4942170;28;91850;-87
2021/05/13 14:05:57;;;;;;;10.35;9.93;;;12.10;99.90;;;;;;4935474;28;91996;-87
2021/05/13 14:08:25;;;;;;;12.18;11.68;;;12.20;99.90;;;;;;4935386;28;93863;-86
2021/05/13 14:10:51;;;;;;;6.60;6.40;;;12.00;99.90;;;;;;4943112;28;92054;-86
2021/05/13 14:13:20;;;;;;;7.63;7.32;;;12.40;99.90;;;;;;4943609;28;91990;-85
2021/05/13 14:15:51;;;;;;;7.70;7.40;;;11.30;99.90;;;;;;4943298;28;93714;-86
2021/05/13 14:18:16;;;;;;;12.67;11.97;;;11.70;99.90;;;;;;4943571;28;94987;-86
2021/05/13 14:20:42;;;;;;;9.93;9.52;;;;;;;;;;4943482;28;91998;-84
2021/05/13 14:23:08;;;;;;;9.00;8.57;;;11.60;99.90;;;;;;4944461;28;92085;-84
2021/05/13 14:25:34;;;;;;;6.93;6.72;;;;;;;;;;4938415;28;92312;-85
2021/05/13 14:28:00;;;;;;;6.88;6.60;;;11.90;99.90;;;;;;4944196;28;92396;-85
2021/05/13 14:30:26;;;;;;;8.90;8.60;;;12.30;99.90;;;;;;4945400;28;91542;-87
2021/05/13 14:32:52;;;;;;;12.40;11.90;;;12.10;99.90;;;;;;4945086;28;90852;-84
2021/05/13 14:35:28;;;;;;;6.70;6.45;;;12.50;99.90;;;;;;4944362;28;92561;-86
2021/05/13 14:37:58;;;;;;;8.85;8.55;;;12.10;99.90;;;;;;4942075;28;93083;-87
2021/05/13 14:40:26;;;;;;;12.27;11.63;;;12.20;99.90;;;;;;4942318;28;92756;-86
2021/05/13 14:42:52;;;;;;;12.35;11.85;;;12.20;99.90;;;;;;4925087;28;91949;-87
2021/05/13 14:45:18;;;;;;;18.08;17.38;;;12.20;99.90;;;;;;4941900;28;91760;-87
2021/05/13 14:47:52;;;;;;;14.48;13.65;;;13.00;99.90;;;;;;4941236;28;93080;-86
2021/05/13 14:50:23;;;;;;;10.32;9.93;;;12.40;99.90;;;;;;4942615;28;91915;-85
2021/05/13 14:52:49;;;;;;;10.15;9.75;;;12.50;99.90;;;;;;4943243;28;91872;-85
2021/05/13 14:55:15;;;;;;;7.95;7.65;;;13.50;99.90;;;;;;4925667;28;92830;-85
2021/05/13 14:57:48;;;;;;;9.02;8.73;;;12.50;99.90;;;;;;4941318;28;91643;-85
2021/05/13 15:00:18;;;;;;;9.52;9.00;;;12.90;99.90;;;;;;4937823;28;91958;-86
2021/05/13 15:02:46;;;;;;;7.60;7.30;;;12.70;99.90;;;;;;4933131;28;92183;-87
2021/05/13 15:05:13;;;;;;;10.23;9.82;;;12.70;99.90;;;;;;4931978;28;93800;-85
2021/05/13 15:07:39;;;;;;;12.15;11.60;;;12.20;99.90;;;;;;4946428;28;96066;-85
2021/05/13 15:10:05;;;;;;;10.55;10.15;;;11.90;99.90;;;;;;4951123;28;92056;-85
2021/05/13 15:12:30;;;;;;;18.13;17.27;;;12.20;99.90;;;;;;4960525;28;91922;-84
2021/05/13 15:14:56;;;;;;;9.23;8.88;;;12.50;99.90;;;;;;4952638;28;92263;-85
2021/05/13 15:17:22;;;;;;;10.95;10.45;;;12.80;99.90;;;;;;4945089;28;92296;-87
2021/05/13 15:19:54;;;;;;;16.88;16.17;;;12.90;99.90;;;;;;4977411;28;91629;-85
2021/05/13 15:22:21;;;;;;;16.40;15.70;;;13.70;99.90;;;;;;4968775;28;91011;-86
2021/05/13 15:24:47;;;;;;;17.10;16.20;;;13.10;99.90;;;;;;4949366;28;92421;-85
2021/05/13 15:27:12;;;;;;;22.20;21.02;;;13.10;99.90;;;;;;4964965;28;92397;-84
2021/05/13 15:29:38;;;;;;;24.77;23.83;;;13.10;99.90;;;;;;4945138;28;92793;-84
2021/05/13 15:32:05;;;;;;;21.40;20.58;;;13.20;99.90;;;;;;4945407;28;92064;-84
2021/05/13 15:34:31;;;;;;;16.55;15.95;;;13.20;99.90;;;;;;4942019;28;92520;-84
2021/05/13 15:36:57;;;;;;;23.13;22.23;;;13.30;99.90;;;;;;4939997;28;92082;-87
2021/05/13 15:39:23;;;;;;;16.08;15.48;;;13.20;99.90;;;;;;4944671;28;91974;-85